Hall, Montana
Current Conditions -  °F | °C
As of 8:53 PM on Thursday 27 Nov 2014 (Local Time) from KMSO Reporting Station
Overcast Overcast  
Wind Chill: 44°   Ceiling: 4700
Heat Index: 46°   Visibility: 10mi
Dew Point: 38°   Wind: 5mph
Humidity: 73%   Direction: 70°ENE
Pressure: 29.84"   Gusts: NA
Location:  46.58°N, 113.19°W
Report Text: KMSO 280353Z AUTO 07004KT 10SM OVC047 08/03 A2984 RMK AO2 SLP122 T00780033 TSNO
Loading
Personal Weather Stations






























Interactive Weather Map New forecast layout! Learn more

10-Day Weather Forecast

Advertisements
Track Severe Weather on mobile